KTUL/TUL METAR and TAF weather

Enter ICAO airport designator
Station Type Date Time Source
KTUL METAR 2021/03/08 01:53 UTC NOAA

KTUL 080153Z 17009KT 10SM CLR 14/M01 A3031 RMK AO2 SLP262 T01441011


Station Type Date Time Source
KTUL Decoded METAR 2021/03/08 01:53 UTC NOAA

TULSA INTERNATIONAL AIRPORT, OK, United States (KTUL) 36-12N 95-53W 207M
Mar 07, 2021 - 08:53 PM EST / 2021.03.08 0153 UTC
Wind: from the S (170 degrees) at 10 MPH (9 KT):0
Visibility: 10 mile(s):0
Sky conditions: clear
Temperature: 57.9 F (14.4 C)
Dew Point: 30.0 F (-1.1 C)
Relative Humidity: 34%
Pressure (altimeter): 30.31 in. Hg (1026 hPa)
ob: KTUL 080153Z 17009KT 10SM CLR 14/M01 A3031 RMK AO2 SLP262 T01441011
cycle: 2

Station Type Date Time Source
KTUL TAF 2021/03/07 18:30 UTC NOAA

TAF KTUL 071729Z 0718/0818 17015G25KT P6SM FEW250
FM080200 18009KT P6SM SKC
FM081500 18014G22KT P6SM SKC

Example: see airport list